createdAt,value
2018-11-20T00:02:20.698Z,2.03
2018-11-20T00:05:10.678Z,2.20
2018-11-20T00:08:00.834Z,2.43
2018-11-20T00:10:43.245Z,2.10
2018-11-20T00:13:20.081Z,1.90
2018-11-20T00:16:03.418Z,1.97
2018-11-20T00:18:43.579Z,2.13
2018-11-20T00:21:29.887Z,2.10
2018-11-20T00:24:18.401Z,1.73
2018-11-20T00:27:11.586Z,1.90
2018-11-20T00:30:01.764Z,2.30
2018-11-20T00:32:47.582Z,2.70
2018-11-20T00:35:46.935Z,2.10
2018-11-20T00:38:40.330Z,2.40
2018-11-20T00:41:32.707Z,2.03
2018-11-20T00:44:13.773Z,2.20
2018-11-20T00:47:12.992Z,2.50
2018-11-20T00:50:03.109Z,2.53
2018-11-20T00:52:43.390Z,2.70
2018-11-20T00:56:19.968Z,2.70
2018-11-20T00:59:05.935Z,2.00
2018-11-20T01:01:51.975Z,2.90
2018-11-20T01:04:54.698Z,2.40
2018-11-20T01:07:40.744Z,2.57
2018-11-20T01:10:28.297Z,2.47
2018-11-20T01:13:18.478Z,2.50
2018-11-20T01:16:11.923Z,2.47
2018-11-20T01:18:59.284Z,2.23
2018-11-20T01:21:46.682Z,1.80
2018-11-20T01:24:39.844Z,2.27
2018-11-20T01:27:20.616Z,2.10
2018-11-20T01:30:06.693Z,2.37
2018-11-20T01:32:52.546Z,2.00
2018-11-20T01:35:35.864Z,2.50
2018-11-20T01:38:41.311Z,2.33
2018-11-20T01:41:23.548Z,2.30
2018-11-20T01:44:02.679Z,2.20
2018-11-20T01:46:49.200Z,2.50
2018-11-20T01:49:45.411Z,2.80
2018-11-20T01:52:43.555Z,2.50
2018-11-20T01:55:34.030Z,3.07
2018-11-20T01:58:17.686Z,3.13
2018-11-20T02:01:03.097Z,2.80
2018-11-20T02:03:41.814Z,2.80
2018-11-20T02:06:20.475Z,2.83
2018-11-20T02:09:07.861Z,2.90
2018-11-20T02:11:55.857Z,2.87
2018-11-20T02:14:42.097Z,3.07
2018-11-20T02:17:31.315Z,2.97
2018-11-20T02:20:17.169Z,2.77
2018-11-20T02:23:03.523Z,3.23
2018-11-20T02:25:44.140Z,3.20
2018-11-20T02:28:30.281Z,2.53
2018-11-20T02:31:17.924Z,2.63
2018-11-20T02:34:05.365Z,2.80
2018-11-20T02:36:59.145Z,2.70
2018-11-20T02:39:40.341Z,3.10
2018-11-20T02:42:30.876Z,2.70
2018-11-20T02:45:17.076Z,2.80
2018-11-20T02:48:10.596Z,2.67
2018-11-20T02:50:55.479Z,2.83
2018-11-20T02:53:51.846Z,3.40
2018-11-20T02:56:37.731Z,2.73
2018-11-20T02:59:27.930Z,2.83
2018-11-20T03:02:14.200Z,3.00
2018-11-20T03:05:16.904Z,2.93
2018-11-20T03:07:59.440Z,3.30
2018-11-20T03:10:46.298Z,3.83
2018-11-20T03:13:37.128Z,3.17
2018-11-20T03:16:37.042Z,3.40
2018-11-20T03:19:23.634Z,3.53
2018-11-20T03:22:04.330Z,2.80
2018-11-20T03:24:57.901Z,3.63
2018-11-20T03:27:51.449Z,3.13
2018-11-20T03:30:55.219Z,3.27
2018-11-20T03:33:35.631Z,3.63
2018-11-20T03:36:21.957Z,3.07
2018-11-20T03:39:04.323Z,3.77
2018-11-20T03:41:51.842Z,3.27
2018-11-20T03:44:41.126Z,2.90
2018-11-20T03:47:37.666Z,3.50
2018-11-20T03:50:19.124Z,3.67
2018-11-20T03:53:05.435Z,2.97
2018-11-20T03:56:01.742Z,3.20
2018-11-20T03:58:58.913Z,3.47
2018-11-20T04:01:35.485Z,3.27
2018-11-20T04:04:25.834Z,3.03
2018-11-20T04:07:14.690Z,2.97
2018-11-20T04:09:57.141Z,3.43
2018-11-20T04:13:00.006Z,3.20
2018-11-20T04:15:50.774Z,3.13
2018-11-20T04:18:41.077Z,2.87
2018-11-20T04:21:46.960Z,3.40
2018-11-20T04:24:34.593Z,2.80
2018-11-20T04:27:24.850Z,3.17
2018-11-20T04:30:48.890Z,2.50
2018-11-20T04:34:04.721Z,3.43
2018-11-20T04:36:58.396Z,2.80
2018-11-20T04:39:51.895Z,3.27
2018-11-20T04:42:29.243Z,3.03
2018-11-20T04:45:16.056Z,2.90
2018-11-20T04:48:02.374Z,3.30
2018-11-20T04:50:49.764Z,2.97
2018-11-20T04:53:35.281Z,3.10
2018-11-20T04:56:25.783Z,3.33
2018-11-20T04:59:05.036Z,3.90
2018-11-20T05:02:05.833Z,3.40
2018-11-20T05:04:47.403Z,3.50
2018-11-20T05:07:40.903Z,3.37
2018-11-20T05:10:27.196Z,3.20
2018-11-20T05:13:20.889Z,3.27
2018-11-20T05:16:14.246Z,3.43
2018-11-20T05:19:00.359Z,2.90
2018-11-20T05:21:57.038Z,3.47
2018-11-20T05:24:45.271Z,3.30
2018-11-20T05:27:51.159Z,3.30
2018-11-20T05:30:40.622Z,3.20
2018-11-20T05:33:40.089Z,3.13
2018-11-20T05:36:40.237Z,3.63
2018-11-20T05:39:18.727Z,3.63
2018-11-20T05:42:08.966Z,2.70
2018-11-20T05:44:55.860Z,2.80
2018-11-20T05:47:42.312Z,2.80
2018-11-20T05:50:29.852Z,2.43
2018-11-20T05:53:17.443Z,3.03
2018-11-20T05:56:11.138Z,3.10
2018-11-20T05:58:59.016Z,3.13
2018-11-20T06:01:45.313Z,2.90
2018-11-20T06:04:28.119Z,2.70
2018-11-20T06:07:28.296Z,3.33
2018-11-20T06:10:14.543Z,3.10
2018-11-20T06:13:00.831Z,3.53
2018-11-20T06:15:57.459Z,3.57
2018-11-20T06:18:39.894Z,3.47
2018-11-20T06:21:36.397Z,3.40
2018-11-20T06:24:33.355Z,4.10
2018-11-20T06:27:23.828Z,3.03
2018-11-20T06:30:10.187Z,4.00
2018-11-20T06:32:57.901Z,4.10
2018-11-20T06:35:44.304Z,3.73
2018-11-20T06:38:47.388Z,2.77
2018-11-20T06:41:34.002Z,3.77
2018-11-20T06:44:21.564Z,3.60
2018-11-20T06:47:01.519Z,4.17
2018-11-20T06:49:47.628Z,4.00
2018-11-20T06:52:49.256Z,3.57
2018-11-20T06:55:36.811Z,3.80
2018-11-20T06:58:22.946Z,3.80
2018-11-20T07:01:13.524Z,3.47
2018-11-20T07:03:52.435Z,3.30
2018-11-20T07:06:55.005Z,4.00
2018-11-20T07:09:38.393Z,3.83
2018-11-20T07:12:25.098Z,3.97
2018-11-20T07:15:27.766Z,3.63
2018-11-20T07:18:24.140Z,3.37
2018-11-20T07:21:27.203Z,3.63
2018-11-20T07:24:13.295Z,3.47
2018-11-20T07:27:03.503Z,4.03
2018-11-20T07:29:55.260Z,4.03
2018-11-20T07:32:41.579Z,3.77
2018-11-20T07:35:29.167Z,3.70
2018-11-20T07:38:19.481Z,4.67
2018-11-20T07:40:58.111Z,4.00
2018-11-20T07:43:44.740Z,3.33
2018-11-20T07:46:21.676Z,4.43
2018-11-20T07:49:09.317Z,4.03
2018-11-20T07:51:55.697Z,4.27
2018-11-20T07:54:35.833Z,4.23
2018-11-20T07:57:22.491Z,4.20
2018-11-20T08:00:01.550Z,4.17
2018-11-20T08:03:07.863Z,4.17
2018-11-20T08:06:01.729Z,3.73
2018-11-20T08:08:49.258Z,4.33
2018-11-20T08:11:49.731Z,3.80
2018-11-20T08:14:25.222Z,3.50
2018-11-20T08:17:11.614Z,4.63
2018-11-20T08:19:57.702Z,3.80
2018-11-20T08:22:47.303Z,3.87
2018-11-20T08:25:34.066Z,4.10
2018-11-20T08:28:30.700Z,3.30
2018-11-20T08:31:28.421Z,4.97
2018-11-20T08:34:06.960Z,3.57
2018-11-20T08:36:46.001Z,4.07
2018-11-20T08:39:44.750Z,4.40
2018-11-20T08:42:32.337Z,3.70
2018-11-20T08:45:19.005Z,3.90
2018-11-20T08:48:07.580Z,3.70
2018-11-20T08:51:08.825Z,3.80
2018-11-20T08:54:11.423Z,3.77
2018-11-20T08:56:56.360Z,3.87
2018-11-20T08:59:33.511Z,4.20
2018-11-20T09:02:20.166Z,3.67
2018-11-20T09:05:10.568Z,3.77
2018-11-20T09:08:04.101Z,3.70
2018-11-20T09:10:50.488Z,3.37
2018-11-20T09:13:36.674Z,3.70
2018-11-20T09:16:24.290Z,3.90
2018-11-20T09:19:10.929Z,3.63
2018-11-20T09:21:58.468Z,4.03
2018-11-20T09:24:52.072Z,4.67
2018-11-20T09:30:28.931Z,4.17
2018-11-20T09:33:12.575Z,4.87
2018-11-20T09:35:59.817Z,4.40
2018-11-20T09:38:53.073Z,3.87
2018-11-20T09:41:29.717Z,4.40
2018-11-20T09:44:56.862Z,4.00
2018-11-20T09:47:42.069Z,4.27
2018-11-20T09:50:30.188Z,4.10
2018-11-20T09:53:21.350Z,4.77
2018-11-20T09:56:08.449Z,4.40
2018-11-20T09:58:56.223Z,3.87
2018-11-20T10:01:44.905Z,4.27
2018-11-20T10:04:32.669Z,4.40
2018-11-20T10:07:19.759Z,4.50
2018-11-20T10:10:09.915Z,4.60
2018-11-20T10:12:52.210Z,4.27
2018-11-20T10:15:55.300Z,4.30
2018-11-20T10:18:41.633Z,4.80
2018-11-20T10:21:29.369Z,4.60
2018-11-20T10:24:26.331Z,4.13
2018-11-20T10:27:11.993Z,4.37
2018-11-20T10:29:59.778Z,4.63
2018-11-20T10:32:53.560Z,4.90
2018-11-20T10:35:29.556Z,5.30
2018-11-20T10:38:27.748Z,4.50
2018-11-20T10:41:21.127Z,5.13
2018-11-20T10:44:10.416Z,5.17
2018-11-20T10:47:02.437Z,5.93
2018-11-20T10:49:48.613Z,4.63
2018-11-20T10:52:42.160Z,4.90
2018-11-20T10:55:28.774Z,4.60
2018-11-20T10:58:31.892Z,4.60
2018-11-20T11:01:18.229Z,5.33
2018-11-20T11:03:47.500Z,5.53
2018-11-20T11:06:29.884Z,4.30
2018-11-20T11:09:16.197Z,4.93
2018-11-20T11:12:02.609Z,4.53
2018-11-20T11:15:00.458Z,5.13
2018-11-20T11:17:51.717Z,5.00
2018-11-20T11:20:48.807Z,4.80
2018-11-20T11:23:48.261Z,4.80
2018-11-20T11:26:41.787Z,4.87
2018-11-20T11:29:28.798Z,5.00
2018-11-20T11:32:28.808Z,4.63
2018-11-20T11:35:15.338Z,4.83
2018-11-20T11:38:11.346Z,4.47
2018-11-20T11:40:57.927Z,4.77
2018-11-20T11:43:54.915Z,4.93
2018-11-20T11:46:41.323Z,4.97
2018-11-20T11:49:34.955Z,5.17
2018-11-20T11:52:25.986Z,4.20
2018-11-20T11:55:23.347Z,5.20
2018-11-20T11:58:23.380Z,4.07
2018-11-20T12:01:11.176Z,3.70
2018-11-20T12:06:43.789Z,3.80
2018-11-20T12:09:34.565Z,4.30
2018-11-20T12:12:25.815Z,4.50
2018-11-20T12:15:19.523Z,4.20
2018-11-20T12:18:06.028Z,3.80
2018-11-20T12:20:45.526Z,4.23
2018-11-20T12:23:32.186Z,4.60
2018-11-20T12:26:18.873Z,4.20
2018-11-20T12:29:11.077Z,3.80
2018-11-20T12:32:08.498Z,3.53
2018-11-20T12:34:56.676Z,3.87
2018-11-20T12:37:36.639Z,4.00
2018-11-20T12:40:23.414Z,4.17
2018-11-20T12:43:13.652Z,4.13
2018-11-20T12:46:13.258Z,3.63
2018-11-20T12:49:12.179Z,3.97
2018-11-20T12:51:59.948Z,3.50
2018-11-20T12:54:52.402Z,5.75
2018-11-20T12:57:30.246Z,4.30
2018-11-20T13:00:17.118Z,4.17
2018-11-20T13:03:03.148Z,4.67
2018-11-20T13:05:49.793Z,4.10
2018-11-20T13:08:40.740Z,3.80
2018-11-20T13:11:26.900Z,3.50
2018-11-20T13:14:24.177Z,3.63
2018-11-20T13:17:26.827Z,3.77
2018-11-20T13:20:12.586Z,3.50
2018-11-20T13:23:02.554Z,2.90
2018-11-20T13:25:42.662Z,3.77
2018-11-20T13:28:35.824Z,3.50
2018-11-20T13:31:29.149Z,3.67
2018-11-20T13:34:20.776Z,4.10
2018-11-20T13:36:56.850Z,3.20
2018-11-20T13:39:38.883Z,3.63
2018-11-20T13:42:22.070Z,3.77
2018-11-20T13:45:10.142Z,4.07
2018-11-20T13:47:56.416Z,3.83
2018-11-20T13:50:59.209Z,3.30
2018-11-20T13:53:49.545Z,4.00
2018-11-20T13:56:43.147Z,3.97
2018-11-20T13:59:36.619Z,3.47
2018-11-20T14:02:23.073Z,3.30
2018-11-20T14:05:13.280Z,3.87
2018-11-20T14:08:00.237Z,3.97
2018-11-20T14:10:46.500Z,3.93
2018-11-20T14:13:36.788Z,3.13
2018-11-20T14:16:27.245Z,3.60
2018-11-20T14:19:18.369Z,3.97
2018-11-20T14:21:59.810Z,3.63
2018-11-20T14:24:46.859Z,3.70
2018-11-20T14:27:32.624Z,3.97
2018-11-20T14:30:29.163Z,4.30
2018-11-20T14:33:15.654Z,4.00
2018-11-20T14:36:01.716Z,4.03
2018-11-20T14:38:57.956Z,4.53
2018-11-20T14:41:45.947Z,4.00
2018-11-20T14:44:25.273Z,4.20
2018-11-20T14:47:20.160Z,3.43
2018-11-20T14:50:06.528Z,3.70
2018-11-20T14:52:52.327Z,3.60
2018-11-20T14:55:42.890Z,3.43
2018-11-20T14:58:35.143Z,3.90
2018-11-20T15:01:38.157Z,3.30
2018-11-20T15:04:32.043Z,4.30
2018-11-20T15:07:25.490Z,4.50
2018-11-20T15:10:16.449Z,4.40
2018-11-20T15:13:10.367Z,3.60
2018-11-20T15:15:54.303Z,4.33
2018-11-20T15:18:44.077Z,4.00
2018-11-20T15:21:24.477Z,3.97
2018-11-20T15:24:14.910Z,3.67
2018-11-20T15:27:01.277Z,3.30
2018-11-20T15:29:57.649Z,4.33
2018-11-20T15:32:52.498Z,4.07
2018-11-20T15:35:42.682Z,3.77
2018-11-20T15:38:36.607Z,4.70
2018-11-20T15:41:36.577Z,4.37
2018-11-20T15:44:39.663Z,4.23
2018-11-20T15:47:25.281Z,5.00
2018-11-20T15:50:12.858Z,3.97
